Terminal Aerodrome Forecast
Issued by NWS

Home | Current Version | Previous Version | Text Only | Print | Product List | Glossary On
Versions: 1 2 3 4 5 6 7 8 9 10 11 12
000
FTUS44 KEPZ 300500
TAFLRU
TAF
KLRU 300523Z 3006/3106 07005KT P6SM FEW100
     FM301700 18007KT P6SM FEW100 FEW250
     FM310300 20007KT P6SM FEW120 FEW250=

USA.gov is the U.S. government's official web portal to all federal, state and local government web resources and services.